sensor_id;sensor_type;location;lat;lon;timestamp;temperature;humidity
38941;DHT22;43236;47.208;7.518;2024-03-02T00:02:06;9.10;91.70
38941;DHT22;43236;47.208;7.518;2024-03-02T00:04:53;9.10;91.80
38941;DHT22;43236;47.208;7.518;2024-03-02T00:07:41;9.00;91.80
38941;DHT22;43236;47.208;7.518;2024-03-02T00:10:35;9.00;91.80
38941;DHT22;43236;47.208;7.518;2024-03-02T00:13:23;9.00;91.80
38941;DHT22;43236;47.208;7.518;2024-03-02T00:16:10;9.00;91.70
38941;DHT22;43236;47.208;7.518;2024-03-02T00:19:02;8.90;91.90
38941;DHT22;43236;47.208;7.518;2024-03-02T00:21:51;8.90;91.60
38941;DHT22;43236;47.208;7.518;2024-03-02T00:24:39;8.90;91.40
38941;DHT22;43236;47.208;7.518;2024-03-02T00:27:26;8.90;91.50
38941;DHT22;43236;47.208;7.518;2024-03-02T00:30:40;8.80;91.30
38941;DHT22;43236;47.208;7.518;2024-03-02T00:33:33;8.80;91.30
38941;DHT22;43236;47.208;7.518;2024-03-02T00:36:24;8.80;91.10
38941;DHT22;43236;47.208;7.518;2024-03-02T00:39:12;8.70;91.00
38941;DHT22;43236;47.208;7.518;2024-03-02T00:42:02;8.70;91.10
38941;DHT22;43236;47.208;7.518;2024-03-02T00:44:49;8.60;91.10
38941;DHT22;43236;47.208;7.518;2024-03-02T00:47:38;8.60;91.20
38941;DHT22;43236;47.208;7.518;2024-03-02T00:50:25;8.50;90.90
38941;DHT22;43236;47.208;7.518;2024-03-02T00:53:14;8.50;91.20
38941;DHT22;43236;47.208;7.518;2024-03-02T00:56:02;8.50;91.10
38941;DHT22;43236;47.208;7.518;2024-03-02T00:58:49;8.50;91.10
38941;DHT22;43236;47.208;7.518;2024-03-02T01:01:37;8.50;91.10
38941;DHT22;43236;47.208;7.518;2024-03-02T01:04:24;8.50;91.00
38941;DHT22;43236;47.208;7.518;2024-03-02T01:07:11;8.40;91.00
38941;DHT22;43236;47.208;7.518;2024-03-02T01:09:59;8.40;91.10
38941;DHT22;43236;47.208;7.518;2024-03-02T01:12:46;8.40;90.90
38941;DHT22;43236;47.208;7.518;2024-03-02T01:15:33;8.40;90.90
38941;DHT22;43236;47.208;7.518;2024-03-02T01:18:21;8.40;90.90
38941;DHT22;43236;47.208;7.518;2024-03-02T01:21:08;8.30;90.90
38941;DHT22;43236;47.208;7.518;2024-03-02T01:23:55;8.30;90.60
38941;DHT22;43236;47.208;7.518;2024-03-02T01:26:44;8.30;90.60
38941;DHT22;43236;47.208;7.518;2024-03-02T01:29:31;8.30;90.70
38941;DHT22;43236;47.208;7.518;2024-03-02T01:32:18;8.20;90.60
38941;DHT22;43236;47.208;7.518;2024-03-02T01:35:05;8.20;90.60
38941;DHT22;43236;47.208;7.518;2024-03-02T01:37:53;8.20;90.90
38941;DHT22;43236;47.208;7.518;2024-03-02T01:40:41;8.20;90.80
38941;DHT22;43236;47.208;7.518;2024-03-02T01:43:31;8.20;90.80
38941;DHT22;43236;47.208;7.518;2024-03-02T01:46:18;8.20;91.10
38941;DHT22;43236;47.208;7.518;2024-03-02T01:49:06;8.20;91.10
38941;DHT22;43236;47.208;7.518;2024-03-02T01:51:53;8.20;91.00
38941;DHT22;43236;47.208;7.518;2024-03-02T01:54:40;8.20;91.10
38941;DHT22;43236;47.208;7.518;2024-03-02T01:57:27;8.30;91.00
38941;DHT22;43236;47.208;7.518;2024-03-02T02:00:16;8.30;91.00
38941;DHT22;43236;47.208;7.518;2024-03-02T02:03:03;8.30;91.10
38941;DHT22;43236;47.208;7.518;2024-03-02T02:05:51;8.20;91.50
38941;DHT22;43236;47.208;7.518;2024-03-02T02:08:38;8.30;91.60
38941;DHT22;43236;47.208;7.518;2024-03-02T02:11:25;8.20;91.40
38941;DHT22;43236;47.208;7.518;2024-03-02T02:14:12;8.20;91.40
38941;DHT22;43236;47.208;7.518;2024-03-02T02:17:01;8.20;91.40
38941;DHT22;43236;47.208;7.518;2024-03-02T02:19:48;8.20;91.20
38941;DHT22;43236;47.208;7.518;2024-03-02T02:22:36;8.20;91.70
38941;DHT22;43236;47.208;7.518;2024-03-02T02:25:23;8.20;91.50
38941;DHT22;43236;47.208;7.518;2024-03-02T02:28:10;8.10;91.30
38941;DHT22;43236;47.208;7.518;2024-03-02T02:30:57;8.10;91.40
38941;DHT22;43236;47.208;7.518;2024-03-02T02:33:45;8.10;91.10
38941;DHT22;43236;47.208;7.518;2024-03-02T02:36:33;8.00;90.80
38941;DHT22;43236;47.208;7.518;2024-03-02T02:39:22;8.00;90.70
38941;DHT22;43236;47.208;7.518;2024-03-02T02:42:09;7.90;90.70
38941;DHT22;43236;47.208;7.518;2024-03-02T02:44:56;7.90;90.80
38941;DHT22;43236;47.208;7.518;2024-03-02T02:47:44;7.80;90.60
38941;DHT22;43236;47.208;7.518;2024-03-02T02:50:31;7.80;90.80
38941;DHT22;43236;47.208;7.518;2024-03-02T02:53:18;7.80;90.80
38941;DHT22;43236;47.208;7.518;2024-03-02T02:56:07;7.80;90.70
38941;DHT22;43236;47.208;7.518;2024-03-02T02:58:54;7.70;90.60
38941;DHT22;43236;47.208;7.518;2024-03-02T03:01:41;7.70;90.70
38941;DHT22;43236;47.208;7.518;2024-03-02T03:04:28;7.70;90.60
38941;DHT22;43236;47.208;7.518;2024-03-02T03:07:15;7.70;90.90
38941;DHT22;43236;47.208;7.518;2024-03-02T03:10:02;7.70;90.90
38941;DHT22;43236;47.208;7.518;2024-03-02T03:12:51;7.70;91.10
38941;DHT22;43236;47.208;7.518;2024-03-02T03:15:39;7.70;91.00
38941;DHT22;43236;47.208;7.518;2024-03-02T03:18:26;7.70;91.10
38941;DHT22;43236;47.208;7.518;2024-03-02T03:21:13;7.70;91.30
38941;DHT22;43236;47.208;7.518;2024-03-02T03:24:00;7.80;91.60
38941;DHT22;43236;47.208;7.518;2024-03-02T03:26:47;7.80;91.90
38941;DHT22;43236;47.208;7.518;2024-03-02T03:29:36;7.90;91.80
38941;DHT22;43236;47.208;7.518;2024-03-02T03:32:23;7.90;91.80
38941;DHT22;43236;47.208;7.518;2024-03-02T03:35:10;7.90;91.60
38941;DHT22;43236;47.208;7.518;2024-03-02T03:37:58;7.90;91.60
38941;DHT22;43236;47.208;7.518;2024-03-02T03:40:48;7.90;91.60
38941;DHT22;43236;47.208;7.518;2024-03-02T03:43:35;7.90;91.60
38941;DHT22;43236;47.208;7.518;2024-03-02T03:46:24;7.90;91.70
38941;DHT22;43236;47.208;7.518;2024-03-02T03:49:11;7.90;91.60
38941;DHT22;43236;47.208;7.518;2024-03-02T03:51:58;7.80;91.80
38941;DHT22;43236;47.208;7.518;2024-03-02T03:54:46;7.90;92.20
38941;DHT22;43236;47.208;7.518;2024-03-02T03:57:33;7.90;92.20
38941;DHT22;43236;47.208;7.518;2024-03-02T04:00:20;7.80;92.40
38941;DHT22;43236;47.208;7.518;2024-03-02T04:03:09;7.80;93.30
38941;DHT22;43236;47.208;7.518;2024-03-02T04:05:56;7.70;93.30
38941;DHT22;43236;47.208;7.518;2024-03-02T04:08:43;7.70;93.10
38941;DHT22;43236;47.208;7.518;2024-03-02T04:11:30;7.70;93.40
38941;DHT22;43236;47.208;7.518;2024-03-02T04:14:17;7.60;93.20
38941;DHT22;43236;47.208;7.518;2024-03-02T04:17:04;7.60;93.10
38941;DHT22;43236;47.208;7.518;2024-03-02T04:19:53;7.50;93.30
38941;DHT22;43236;47.208;7.518;2024-03-02T04:22:40;7.60;93.10
38941;DHT22;43236;47.208;7.518;2024-03-02T04:25:27;7.60;93.30
38941;DHT22;43236;47.208;7.518;2024-03-02T04:28:14;7.60;93.10
38941;DHT22;43236;47.208;7.518;2024-03-02T04:31:01;7.60;93.00
38941;DHT22;43236;47.208;7.518;2024-03-02T04:33:48;7.60;93.00
38941;DHT22;43236;47.208;7.518;2024-03-02T04:36:36;7.60;93.70
38941;DHT22;43236;47.208;7.518;2024-03-02T04:39:23;7.50;93.40
38941;DHT22;43236;47.208;7.518;2024-03-02T04:42:12;7.60;93.50
38941;DHT22;43236;47.208;7.518;2024-03-02T04:44:59;7.60;93.60
38941;DHT22;43236;47.208;7.518;2024-03-02T04:47:46;7.50;93.90
38941;DHT22;43236;47.208;7.518;2024-03-02T04:50:33;7.60;94.10
38941;DHT22;43236;47.208;7.518;2024-03-02T04:53:21;7.50;93.00
38941;DHT22;43236;47.208;7.518;2024-03-02T04:56:08;7.50;92.70
38941;DHT22;43236;47.208;7.518;2024-03-02T04:59:12;7.50;92.40
38941;DHT22;43236;47.208;7.518;2024-03-02T05:01:59;7.40;92.50
38941;DHT22;43236;47.208;7.518;2024-03-02T05:04:46;7.40;92.70
38941;DHT22;43236;47.208;7.518;2024-03-02T05:07:34;7.40;92.50
38941;DHT22;43236;47.208;7.518;2024-03-02T05:10:22;7.40;92.50
38941;DHT22;43236;47.208;7.518;2024-03-02T05:13:10;7.50;92.70
38941;DHT22;43236;47.208;7.518;2024-03-02T05:15:57;7.60;92.60
38941;DHT22;43236;47.208;7.518;2024-03-02T05:18:43;7.60;92.60
38941;DHT22;43236;47.208;7.518;2024-03-02T05:21:30;7.60;93.10
38941;DHT22;43236;47.208;7.518;2024-03-02T05:24:17;7.60;93.00
38941;DHT22;43236;47.208;7.518;2024-03-02T05:27:06;7.60;93.10
38941;DHT22;43236;47.208;7.518;2024-03-02T05:29:53;7.60;93.20
38941;DHT22;43236;47.208;7.518;2024-03-02T05:32:40;7.60;93.20
38941;DHT22;43236;47.208;7.518;2024-03-02T05:35:27;7.50;93.20
38941;DHT22;43236;47.208;7.518;2024-03-02T05:38:14;7.50;93.30
38941;DHT22;43236;47.208;7.518;2024-03-02T05:41:01;7.50;93.30
38941;DHT22;43236;47.208;7.518;2024-03-02T05:43:50;7.50;93.10
38941;DHT22;43236;47.208;7.518;2024-03-02T05:46:37;7.50;93.10
38941;DHT22;43236;47.208;7.518;2024-03-02T05:49:26;7.50;93.10
38941;DHT22;43236;47.208;7.518;2024-03-02T05:52:13;7.50;93.20
38941;DHT22;43236;47.208;7.518;2024-03-02T05:55:00;7.50;93.50
38941;DHT22;43236;47.208;7.518;2024-03-02T05:57:47;7.50;93.90
38941;DHT22;43236;47.208;7.518;2024-03-02T06:00:49;7.60;93.80
38941;DHT22;43236;47.208;7.518;2024-03-02T06:03:36;7.50;93.90
38941;DHT22;43236;47.208;7.518;2024-03-02T06:06:24;7.60;93.80
38941;DHT22;43236;47.208;7.518;2024-03-02T06:09:11;7.60;93.60
38941;DHT22;43236;47.208;7.518;2024-03-02T06:11:58;7.60;93.80
38941;DHT22;43236;47.208;7.518;2024-03-02T06:14:46;7.60;93.80
38941;DHT22;43236;47.208;7.518;2024-03-02T06:17:35;7.70;94.00
38941;DHT22;43236;47.208;7.518;2024-03-02T06:20:22;7.70;94.10
38941;DHT22;43236;47.208;7.518;2024-03-02T06:23:09;7.70;94.00
38941;DHT22;43236;47.208;7.518;2024-03-02T06:25:57;7.70;94.00
38941;DHT22;43236;47.208;7.518;2024-03-02T06:28:44;7.70;94.20
38941;DHT22;43236;47.208;7.518;2024-03-02T06:31:31;7.70;93.50
38941;DHT22;43236;47.208;7.518;2024-03-02T06:34:22;7.70;93.00
38941;DHT22;43236;47.208;7.518;2024-03-02T06:37:09;7.70;92.90
38941;DHT22;43236;47.208;7.518;2024-03-02T06:39:56;7.60;92.80
38941;DHT22;43236;47.208;7.518;2024-03-02T06:42:43;7.60;93.00
38941;DHT22;43236;47.208;7.518;2024-03-02T06:45:30;7.60;92.80
38941;DHT22;43236;47.208;7.518;2024-03-02T06:48:17;7.70;92.90
38941;DHT22;43236;47.208;7.518;2024-03-02T06:51:07;7.70;92.50
38941;DHT22;43236;47.208;7.518;2024-03-02T06:53:54;7.70;92.50
38941;DHT22;43236;47.208;7.518;2024-03-02T06:56:41;7.70;92.40
38941;DHT22;43236;47.208;7.518;2024-03-02T06:59:28;7.70;92.20
38941;DHT22;43236;47.208;7.518;2024-03-02T07:02:15;7.70;92.30
38941;DHT22;43236;47.208;7.518;2024-03-02T07:05:02;7.60;92.30
38941;DHT22;43236;47.208;7.518;2024-03-02T07:07:51;7.60;92.40
38941;DHT22;43236;47.208;7.518;2024-03-02T07:10:38;7.60;92.40
38941;DHT22;43236;47.208;7.518;2024-03-02T07:13:25;7.60;92.40
38941;DHT22;43236;47.208;7.518;2024-03-02T07:16:12;7.70;92.40
38941;DHT22;43236;47.208;7.518;2024-03-02T07:19:13;7.70;92.30
38941;DHT22;43236;47.208;7.518;2024-03-02T07:22:00;7.70;92.30
38941;DHT22;43236;47.208;7.518;2024-03-02T07:24:49;7.70;92.40
38941;DHT22;43236;47.208;7.518;2024-03-02T07:27:36;7.70;92.50
38941;DHT22;43236;47.208;7.518;2024-03-02T07:30:23;7.70;92.70
38941;DHT22;43236;47.208;7.518;2024-03-02T07:33:10;7.70;92.80
38941;DHT22;43236;47.208;7.518;2024-03-02T07:35:57;7.80;92.60
38941;DHT22;43236;47.208;7.518;2024-03-02T07:38:45;7.80;92.60
38941;DHT22;43236;47.208;7.518;2024-03-02T07:41:37;7.80;92.60
38941;DHT22;43236;47.208;7.518;2024-03-02T07:44:24;7.80;92.60
38941;DHT22;43236;47.208;7.518;2024-03-02T07:47:11;7.80;92.60
38941;DHT22;43236;47.208;7.518;2024-03-02T07:49:59;7.80;92.60
38941;DHT22;43236;47.208;7.518;2024-03-02T07:52:46;7.80;92.70
38941;DHT22;43236;47.208;7.518;2024-03-02T07:55:33;7.90;92.60
38941;DHT22;43236;47.208;7.518;2024-03-02T07:58:21;7.80;92.80
38941;DHT22;43236;47.208;7.518;2024-03-02T08:01:08;7.80;92.80
38941;DHT22;43236;47.208;7.518;2024-03-02T08:03:55;7.90;93.00
38941;DHT22;43236;47.208;7.518;2024-03-02T08:06:45;8.00;93.10
38941;DHT22;43236;47.208;7.518;2024-03-02T08:09:32;8.00;92.90
38941;DHT22;43236;47.208;7.518;2024-03-02T08:12:19;8.10;93.10
38941;DHT22;43236;47.208;7.518;2024-03-02T08:15:10;8.20;93.40
38941;DHT22;43236;47.208;7.518;2024-03-02T08:18:04;8.20;93.30
38941;DHT22;43236;47.208;7.518;2024-03-02T08:20:51;8.30;93.00
38941;DHT22;43236;47.208;7.518;2024-03-02T08:23:38;8.30;92.90
38941;DHT22;43236;47.208;7.518;2024-03-02T08:26:26;8.30;92.80
38941;DHT22;43236;47.208;7.518;2024-03-02T08:29:15;8.30;92.90
38941;DHT22;43236;47.208;7.518;2024-03-02T08:32:05;8.40;93.00
38941;DHT22;43236;47.208;7.518;2024-03-02T08:34:55;8.40;93.00
38941;DHT22;43236;47.208;7.518;2024-03-02T08:37:42;8.40;92.60
38941;DHT22;43236;47.208;7.518;2024-03-02T08:40:29;8.50;92.50
38941;DHT22;43236;47.208;7.518;2024-03-02T08:43:16;8.50;92.50
38941;DHT22;43236;47.208;7.518;2024-03-02T08:46:08;8.40;92.80
38941;DHT22;43236;47.208;7.518;2024-03-02T08:48:59;8.50;92.90
38941;DHT22;43236;47.208;7.518;2024-03-02T08:51:47;8.60;93.00
38941;DHT22;43236;47.208;7.518;2024-03-02T08:54:42;8.70;92.70
38941;DHT22;43236;47.208;7.518;2024-03-02T08:57:33;8.70;92.60
38941;DHT22;43236;47.208;7.518;2024-03-02T09:00:20;8.70;92.70
38941;DHT22;43236;47.208;7.518;2024-03-02T09:03:08;8.70;92.70
38941;DHT22;43236;47.208;7.518;2024-03-02T09:05:56;8.70;92.90
38941;DHT22;43236;47.208;7.518;2024-03-02T09:08:43;8.80;93.00
38941;DHT22;43236;47.208;7.518;2024-03-02T09:11:31;8.80;92.90
38941;DHT22;43236;47.208;7.518;2024-03-02T09:14:21;8.90;92.90
38941;DHT22;43236;47.208;7.518;2024-03-02T09:17:09;8.90;92.80
38941;DHT22;43236;47.208;7.518;2024-03-02T09:20:04;8.90;92.80
38941;DHT22;43236;47.208;7.518;2024-03-02T09:22:54;9.00;92.60
38941;DHT22;43236;47.208;7.518;2024-03-02T09:25:41;9.00;92.70
38941;DHT22;43236;47.208;7.518;2024-03-02T09:28:28;9.10;92.40
38941;DHT22;43236;47.208;7.518;2024-03-02T09:31:15;9.20;92.80
38941;DHT22;43236;47.208;7.518;2024-03-02T09:34:02;9.30;92.60
38941;DHT22;43236;47.208;7.518;2024-03-02T09:36:51;9.30;92.60
38941;DHT22;43236;47.208;7.518;2024-03-02T09:39:40;9.40;92.50
38941;DHT22;43236;47.208;7.518;2024-03-02T09:42:27;9.50;92.70
38941;DHT22;43236;47.208;7.518;2024-03-02T09:45:14;9.60;92.80
38941;DHT22;43236;47.208;7.518;2024-03-02T09:48:01;9.70;92.90
38941;DHT22;43236;47.208;7.518;2024-03-02T09:50:49;9.80;92.90
38941;DHT22;43236;47.208;7.518;2024-03-02T09:53:36;9.90;92.70
38941;DHT22;43236;47.208;7.518;2024-03-02T09:56:25;10.00;92.10
38941;DHT22;43236;47.208;7.518;2024-03-02T09:59:12;10.10;92.00
38941;DHT22;43236;47.208;7.518;2024-03-02T10:02:03;10.20;93.00
38941;DHT22;43236;47.208;7.518;2024-03-02T10:04:52;10.30;92.60
38941;DHT22;43236;47.208;7.518;2024-03-02T10:07:39;10.40;91.80
38941;DHT22;43236;47.208;7.518;2024-03-02T10:10:34;10.50;92.00
38941;DHT22;43236;47.208;7.518;2024-03-02T10:13:25;10.60;92.20
38941;DHT22;43236;47.208;7.518;2024-03-02T10:16:12;10.70;91.10
38941;DHT22;43236;47.208;7.518;2024-03-02T10:19:15;10.80;91.70
38941;DHT22;43236;47.208;7.518;2024-03-02T10:22:04;10.90;91.80
38941;DHT22;43236;47.208;7.518;2024-03-02T10:24:51;11.00;92.50
38941;DHT22;43236;47.208;7.518;2024-03-02T10:27:40;11.10;90.90
38941;DHT22;43236;47.208;7.518;2024-03-02T10:30:28;11.10;91.30
38941;DHT22;43236;47.208;7.518;2024-03-02T10:33:17;11.30;92.00
38941;DHT22;43236;47.208;7.518;2024-03-02T10:36:04;11.40;91.10
38941;DHT22;43236;47.208;7.518;2024-03-02T10:38:52;11.50;90.50
38941;DHT22;43236;47.208;7.518;2024-03-02T10:41:41;11.50;90.50
38941;DHT22;43236;47.208;7.518;2024-03-02T10:44:28;11.60;89.70
38941;DHT22;43236;47.208;7.518;2024-03-02T10:47:18;11.60;88.50
38941;DHT22;43236;47.208;7.518;2024-03-02T10:50:07;11.60;90.70
38941;DHT22;43236;47.208;7.518;2024-03-02T10:52:55;11.50;89.20
38941;DHT22;43236;47.208;7.518;2024-03-02T10:55:42;11.60;91.20
38941;DHT22;43236;47.208;7.518;2024-03-02T10:58:32;11.70;90.90
38941;DHT22;43236;47.208;7.518;2024-03-02T11:01:22;11.90;90.00
38941;DHT22;43236;47.208;7.518;2024-03-02T11:04:13;12.00;90.00
38941;DHT22;43236;47.208;7.518;2024-03-02T11:07:04;12.10;89.20
38941;DHT22;43236;47.208;7.518;2024-03-02T11:09:54;12.20;87.10
38941;DHT22;43236;47.208;7.518;2024-03-02T11:12:48;12.20;87.80
38941;DHT22;43236;47.208;7.518;2024-03-02T11:15:43;12.30;86.90
38941;DHT22;43236;47.208;7.518;2024-03-02T11:18:31;12.50;87.80
38941;DHT22;43236;47.208;7.518;2024-03-02T11:21:20;12.50;85.80
38941;DHT22;43236;47.208;7.518;2024-03-02T11:24:31;12.60;84.30
38941;DHT22;43236;47.208;7.518;2024-03-02T11:30:52;12.60;83.70
38941;DHT22;43236;47.208;7.518;2024-03-02T11:33:39;12.60;85.20
38941;DHT22;43236;47.208;7.518;2024-03-02T11:36:27;12.60;84.90
38941;DHT22;43236;47.208;7.518;2024-03-02T11:39:14;12.60;86.40
38941;DHT22;43236;47.208;7.518;2024-03-02T11:42:02;12.70;83.60
38941;DHT22;43236;47.208;7.518;2024-03-02T11:44:49;12.70;82.20
38941;DHT22;43236;47.208;7.518;2024-03-02T11:47:36;12.70;81.10
38941;DHT22;43236;47.208;7.518;2024-03-02T11:50:29;12.70;81.00
38941;DHT22;43236;47.208;7.518;2024-03-02T11:53:18;12.70;80.80
38941;DHT22;43236;47.208;7.518;2024-03-02T11:56:06;12.70;80.90
38941;DHT22;43236;47.208;7.518;2024-03-02T11:58:55;12.80;80.70
38941;DHT22;43236;47.208;7.518;2024-03-02T12:01:42;12.80;82.50
38941;DHT22;43236;47.208;7.518;2024-03-02T12:04:30;12.80;79.00
38941;DHT22;43236;47.208;7.518;2024-03-02T12:07:19;12.70;78.20
38941;DHT22;43236;47.208;7.518;2024-03-02T12:10:09;12.80;77.80
38941;DHT22;43236;47.208;7.518;2024-03-02T12:12:57;12.80;77.60
38941;DHT22;43236;47.208;7.518;2024-03-02T12:15:44;12.80;78.00
38941;DHT22;43236;47.208;7.518;2024-03-02T12:18:31;12.80;78.80
38941;DHT22;43236;47.208;7.518;2024-03-02T12:21:18;12.90;79.50
38941;DHT22;43236;47.208;7.518;2024-03-02T12:24:05;12.90;80.30
38941;DHT22;43236;47.208;7.518;2024-03-02T12:26:54;13.00;80.00
38941;DHT22;43236;47.208;7.518;2024-03-02T12:29:41;13.00;80.30
38941;DHT22;43236;47.208;7.518;2024-03-02T12:32:28;13.00;78.90
38941;DHT22;43236;47.208;7.518;2024-03-02T12:35:17;13.00;78.90
38941;DHT22;43236;47.208;7.518;2024-03-02T12:38:04;13.10;78.70
38941;DHT22;43236;47.208;7.518;2024-03-02T12:40:52;13.10;80.20
38941;DHT22;43236;47.208;7.518;2024-03-02T12:43:40;13.20;80.30
38941;DHT22;43236;47.208;7.518;2024-03-02T12:46:27;13.20;80.30
38941;DHT22;43236;47.208;7.518;2024-03-02T12:49:15;13.20;80.90
38941;DHT22;43236;47.208;7.518;2024-03-02T12:52:03;13.20;80.60
38941;DHT22;43236;47.208;7.518;2024-03-02T12:54:50;13.30;82.00
38941;DHT22;43236;47.208;7.518;2024-03-02T12:57:39;13.20;80.60
38941;DHT22;43236;47.208;7.518;2024-03-02T13:00:28;13.30;80.60
38941;DHT22;43236;47.208;7.518;2024-03-02T13:03:18;13.40;80.50
38941;DHT22;43236;47.208;7.518;2024-03-02T13:06:08;13.40;79.60
38941;DHT22;43236;47.208;7.518;2024-03-02T13:08:55;13.40;80.50
38941;DHT22;43236;47.208;7.518;2024-03-02T13:11:42;13.40;80.10
38941;DHT22;43236;47.208;7.518;2024-03-02T13:14:32;13.40;78.30
38941;DHT22;43236;47.208;7.518;2024-03-02T13:17:21;13.40;78.90
38941;DHT22;43236;47.208;7.518;2024-03-02T13:20:09;13.40;77.70
38941;DHT22;43236;47.208;7.518;2024-03-02T13:22:57;13.40;79.70
38941;DHT22;43236;47.208;7.518;2024-03-02T13:25:44;13.40;79.10
38941;DHT22;43236;47.208;7.518;2024-03-02T13:28:33;13.40;80.00
38941;DHT22;43236;47.208;7.518;2024-03-02T13:31:20;13.40;78.80
38941;DHT22;43236;47.208;7.518;2024-03-02T13:34:09;13.50;78.10
38941;DHT22;43236;47.208;7.518;2024-03-02T13:36:56;13.50;77.80
38941;DHT22;43236;47.208;7.518;2024-03-02T13:39:43;13.50;77.20
38941;DHT22;43236;47.208;7.518;2024-03-02T13:42:30;13.50;76.00
38941;DHT22;43236;47.208;7.518;2024-03-02T13:45:17;13.50;76.00
38941;DHT22;43236;47.208;7.518;2024-03-02T13:48:05;13.50;76.40
38941;DHT22;43236;47.208;7.518;2024-03-02T13:50:54;13.50;77.50
38941;DHT22;43236;47.208;7.518;2024-03-02T13:53:42;13.40;77.00
38941;DHT22;43236;47.208;7.518;2024-03-02T13:56:29;13.40;77.40
38941;DHT22;43236;47.208;7.518;2024-03-02T13:59:17;13.50;78.60
38941;DHT22;43236;47.208;7.518;2024-03-02T14:02:05;13.40;77.90
38941;DHT22;43236;47.208;7.518;2024-03-02T14:04:52;13.40;79.20
38941;DHT22;43236;47.208;7.518;2024-03-02T14:07:41;13.40;80.70
38941;DHT22;43236;47.208;7.518;2024-03-02T14:10:28;13.40;82.30
38941;DHT22;43236;47.208;7.518;2024-03-02T14:13:15;13.40;82.70
38941;DHT22;43236;47.208;7.518;2024-03-02T14:16:02;13.40;83.50
38941;DHT22;43236;47.208;7.518;2024-03-02T14:18:49;13.30;82.80
38941;DHT22;43236;47.208;7.518;2024-03-02T14:21:36;13.30;82.90
38941;DHT22;43236;47.208;7.518;2024-03-02T14:24:25;13.30;83.40
38941;DHT22;43236;47.208;7.518;2024-03-02T14:27:14;13.40;83.10
38941;DHT22;43236;47.208;7.518;2024-03-02T14:30:01;13.40;83.40
38941;DHT22;43236;47.208;7.518;2024-03-02T14:32:48;13.50;83.70
38941;DHT22;43236;47.208;7.518;2024-03-02T14:35:35;13.50;83.70
38941;DHT22;43236;47.208;7.518;2024-03-02T14:38:22;13.60;84.30
38941;DHT22;43236;47.208;7.518;2024-03-02T14:41:10;13.60;83.10
38941;DHT22;43236;47.208;7.518;2024-03-02T14:44:00;13.70;83.70
38941;DHT22;43236;47.208;7.518;2024-03-02T14:46:47;13.80;83.40
38941;DHT22;43236;47.208;7.518;2024-03-02T14:49:34;13.90;83.40
38941;DHT22;43236;47.208;7.518;2024-03-02T14:52:26;13.90;82.50
38941;DHT22;43236;47.208;7.518;2024-03-02T14:55:13;13.90;83.60
38941;DHT22;43236;47.208;7.518;2024-03-02T14:58:01;13.90;83.30
38941;DHT22;43236;47.208;7.518;2024-03-02T15:00:48;13.90;83.50
38941;DHT22;43236;47.208;7.518;2024-03-02T15:03:36;13.80;83.00
38941;DHT22;43236;47.208;7.518;2024-03-02T15:06:23;13.70;83.10
38941;DHT22;43236;47.208;7.518;2024-03-02T15:09:10;13.70;83.40
38941;DHT22;43236;47.208;7.518;2024-03-02T15:11:58;13.60;82.80
38941;DHT22;43236;47.208;7.518;2024-03-02T15:14:46;13.50;83.70
38941;DHT22;43236;47.208;7.518;2024-03-02T15:17:33;13.40;83.50
38941;DHT22;43236;47.208;7.518;2024-03-02T15:20:20;13.40;83.60
38941;DHT22;43236;47.208;7.518;2024-03-02T15:23:07;13.40;83.80
38941;DHT22;43236;47.208;7.518;2024-03-02T15:25:54;13.40;83.40
38941;DHT22;43236;47.208;7.518;2024-03-02T15:28:41;13.50;83.40
38941;DHT22;43236;47.208;7.518;2024-03-02T15:31:30;13.50;83.40
38941;DHT22;43236;47.208;7.518;2024-03-02T15:34:17;13.60;83.10
38941;DHT22;43236;47.208;7.518;2024-03-02T15:37:04;13.60;83.30
38941;DHT22;43236;47.208;7.518;2024-03-02T15:39:51;13.60;83.80
38941;DHT22;43236;47.208;7.518;2024-03-02T15:42:38;13.60;83.20
38941;DHT22;43236;47.208;7.518;2024-03-02T15:45:25;13.60;84.00
38941;DHT22;43236;47.208;7.518;2024-03-02T15:48:20;13.60;83.00
38941;DHT22;43236;47.208;7.518;2024-03-02T15:51:09;13.60;82.60
38941;DHT22;43236;47.208;7.518;2024-03-02T15:53:56;13.60;82.60
38941;DHT22;43236;47.208;7.518;2024-03-02T15:56:43;13.60;81.50
38941;DHT22;43236;47.208;7.518;2024-03-02T15:59:30;13.60;82.50
38941;DHT22;43236;47.208;7.518;2024-03-02T16:02:19;13.50;82.20
38941;DHT22;43236;47.208;7.518;2024-03-02T16:05:08;13.50;82.40
38941;DHT22;43236;47.208;7.518;2024-03-02T16:07:55;13.40;82.80
38941;DHT22;43236;47.208;7.518;2024-03-02T16:10:42;13.30;82.30
38941;DHT22;43236;47.208;7.518;2024-03-02T16:13:29;13.20;82.70
38941;DHT22;43236;47.208;7.518;2024-03-02T16:16:17;13.20;83.10
38941;DHT22;43236;47.208;7.518;2024-03-02T16:19:05;13.10;83.30
38941;DHT22;43236;47.208;7.518;2024-03-02T16:21:53;13.00;83.20
38941;DHT22;43236;47.208;7.518;2024-03-02T16:24:40;13.00;83.20
38941;DHT22;43236;47.208;7.518;2024-03-02T16:27:27;13.00;83.80
38941;DHT22;43236;47.208;7.518;2024-03-02T16:30:14;13.00;83.30
38941;DHT22;43236;47.208;7.518;2024-03-02T16:33:04;13.00;83.30
38941;DHT22;43236;47.208;7.518;2024-03-02T16:35:51;13.00;83.50
38941;DHT22;43236;47.208;7.518;2024-03-02T16:38:39;12.90;83.10
38941;DHT22;43236;47.208;7.518;2024-03-02T16:41:27;12.90;83.30
38941;DHT22;43236;47.208;7.518;2024-03-02T16:44:15;12.90;83.80
38941;DHT22;43236;47.208;7.518;2024-03-02T16:47:02;12.90;84.40
38941;DHT22;43236;47.208;7.518;2024-03-02T16:49:50;12.90;84.50
38941;DHT22;43236;47.208;7.518;2024-03-02T16:52:39;12.90;84.70
38941;DHT22;43236;47.208;7.518;2024-03-02T16:55:27;12.80;84.30
38941;DHT22;43236;47.208;7.518;2024-03-02T16:58:14;12.80;84.40
38941;DHT22;43236;47.208;7.518;2024-03-02T17:01:04;12.80;84.60
38941;DHT22;43236;47.208;7.518;2024-03-02T17:03:51;12.80;84.50
38941;DHT22;43236;47.208;7.518;2024-03-02T17:06:38;12.70;84.40
38941;DHT22;43236;47.208;7.518;2024-03-02T17:09:25;12.60;84.80
38941;DHT22;43236;47.208;7.518;2024-03-02T17:12:13;12.60;84.40
38941;DHT22;43236;47.208;7.518;2024-03-02T17:15:00;12.60;84.60
38941;DHT22;43236;47.208;7.518;2024-03-02T17:17:47;12.50;84.60
38941;DHT22;43236;47.208;7.518;2024-03-02T17:20:34;12.50;84.60
38941;DHT22;43236;47.208;7.518;2024-03-02T17:23:21;12.50;84.90
38941;DHT22;43236;47.208;7.518;2024-03-02T17:26:08;12.50;84.80
38941;DHT22;43236;47.208;7.518;2024-03-02T17:28:57;12.40;84.60
38941;DHT22;43236;47.208;7.518;2024-03-02T17:31:44;12.40;84.70
38941;DHT22;43236;47.208;7.518;2024-03-02T17:34:31;12.40;84.90
38941;DHT22;43236;47.208;7.518;2024-03-02T17:37:18;12.40;84.60
38941;DHT22;43236;47.208;7.518;2024-03-02T17:40:06;12.40;84.30
38941;DHT22;43236;47.208;7.518;2024-03-02T17:42:55;12.40;84.50
38941;DHT22;43236;47.208;7.518;2024-03-02T17:45:44;12.40;84.50
38941;DHT22;43236;47.208;7.518;2024-03-02T17:48:31;12.30;84.10
38941;DHT22;43236;47.208;7.518;2024-03-02T17:51:18;12.30;84.10
38941;DHT22;43236;47.208;7.518;2024-03-02T17:54:05;12.30;84.10
38941;DHT22;43236;47.208;7.518;2024-03-02T17:56:52;12.30;84.10